sensor_id;sensor_type;location;lat;lon;timestamp;temperature;humidity
51500;DHT22;39101;53.478;6.158;2023-09-19T00:01:44;15.20;99.90
51500;DHT22;39101;53.478;6.158;2023-09-19T00:04:13;15.10;99.90
51500;DHT22;39101;53.478;6.158;2023-09-19T00:06:43;15.00;99.90
51500;DHT22;39101;53.478;6.158;2023-09-19T00:09:09;14.90;99.90
51500;DHT22;39101;53.478;6.158;2023-09-19T00:11:37;14.80;99.90
51500;DHT22;39101;53.478;6.158;2023-09-19T00:14:04;14.80;99.90
51500;DHT22;39101;53.478;6.158;2023-09-19T00:16:31;14.60;99.90
51500;DHT22;39101;53.478;6.158;2023-09-19T00:18:59;14.30;99.90
51500;DHT22;39101;53.478;6.158;2023-09-19T00:21:31;14.40;99.90
51500;DHT22;39101;53.478;6.158;2023-09-19T00:23:57;14.30;99.90
51500;DHT22;39101;53.478;6.158;2023-09-19T00:26:23;14.30;99.90
51500;DHT22;39101;53.478;6.158;2023-09-19T00:28:52;14.20;99.90
51500;DHT22;39101;53.478;6.158;2023-09-19T00:31:19;14.20;99.90
51500;DHT22;39101;53.478;6.158;2023-09-19T00:33:45;14.30;99.90
51500;DHT22;39101;53.478;6.158;2023-09-19T00:36:11;14.30;99.90
51500;DHT22;39101;53.478;6.158;2023-09-19T00:38:36;14.40;99.90
51500;DHT22;39101;53.478;6.158;2023-09-19T00:41:02;14.40;99.90
51500;DHT22;39101;53.478;6.158;2023-09-19T00:43:30;14.40;99.90
51500;DHT22;39101;53.478;6.158;2023-09-19T00:45:59;14.40;99.90
51500;DHT22;39101;53.478;6.158;2023-09-19T00:48:32;14.40;99.90
51500;DHT22;39101;53.478;6.158;2023-09-19T00:51:03;14.50;99.90
51500;DHT22;39101;53.478;6.158;2023-09-19T00:53:34;14.50;99.90
51500;DHT22;39101;53.478;6.158;2023-09-19T00:55:59;14.50;99.90
51500;DHT22;39101;53.478;6.158;2023-09-19T00:58:25;14.60;99.90
51500;DHT22;39101;53.478;6.158;2023-09-19T01:00:52;14.70;99.90
51500;DHT22;39101;53.478;6.158;2023-09-19T01:03:18;14.70;99.90
51500;DHT22;39101;53.478;6.158;2023-09-19T01:05:44;14.70;99.90
51500;DHT22;39101;53.478;6.158;2023-09-19T01:08:10;14.80;99.90
51500;DHT22;39101;53.478;6.158;2023-09-19T01:10:44;14.90;99.90
51500;DHT22;39101;53.478;6.158;2023-09-19T01:22:21;15.10;99.90
51500;DHT22;39101;53.478;6.158;2023-09-19T01:30:56;15.10;99.90
51500;DHT22;39101;53.478;6.158;2023-09-19T01:33:24;15.00;99.90
51500;DHT22;39101;53.478;6.158;2023-09-19T01:35:52;15.00;99.90
51500;DHT22;39101;53.478;6.158;2023-09-19T01:38:24;14.90;99.90
51500;DHT22;39101;53.478;6.158;2023-09-19T01:41:06;15.00;99.90
51500;DHT22;39101;53.478;6.158;2023-09-19T01:43:43;14.90;99.90
51500;DHT22;39101;53.478;6.158;2023-09-19T01:46:30;14.90;99.90
51500;DHT22;39101;53.478;6.158;2023-09-19T01:49:33;14.90;99.90
51500;DHT22;39101;53.478;6.158;2023-09-19T01:52:20;14.90;99.90
51500;DHT22;39101;53.478;6.158;2023-09-19T01:55:10;14.90;99.90
51500;DHT22;39101;53.478;6.158;2023-09-19T01:58:08;15.00;99.90
51500;DHT22;39101;53.478;6.158;2023-09-19T02:00:41;15.00;99.90
51500;DHT22;39101;53.478;6.158;2023-09-19T02:03:09;15.00;99.90
51500;DHT22;39101;53.478;6.158;2023-09-19T02:05:50;15.00;99.90
51500;DHT22;39101;53.478;6.158;2023-09-19T02:08:21;15.10;99.90
51500;DHT22;39101;53.478;6.158;2023-09-19T02:10:52;15.10;99.90
51500;DHT22;39101;53.478;6.158;2023-09-19T02:13:25;15.10;99.90
51500;DHT22;39101;53.478;6.158;2023-09-19T02:15:51;15.10;99.90
51500;DHT22;39101;53.478;6.158;2023-09-19T02:18:18;15.10;99.90
51500;DHT22;39101;53.478;6.158;2023-09-19T02:20:44;15.00;99.90
51500;DHT22;39101;53.478;6.158;2023-09-19T02:23:10;15.00;99.90
51500;DHT22;39101;53.478;6.158;2023-09-19T02:25:36;15.10;99.90
51500;DHT22;39101;53.478;6.158;2023-09-19T02:28:03;15.10;99.90
51500;DHT22;39101;53.478;6.158;2023-09-19T02:30:32;15.10;99.90
51500;DHT22;39101;53.478;6.158;2023-09-19T02:32:58;15.10;99.90
51500;DHT22;39101;53.478;6.158;2023-09-19T02:35:27;15.00;99.90
51500;DHT22;39101;53.478;6.158;2023-09-19T02:37:53;14.90;99.90
51500;DHT22;39101;53.478;6.158;2023-09-19T02:40:20;14.90;99.90
51500;DHT22;39101;53.478;6.158;2023-09-19T02:42:55;14.80;99.90
51500;DHT22;39101;53.478;6.158;2023-09-19T02:45:21;14.70;99.90
51500;DHT22;39101;53.478;6.158;2023-09-19T02:47:47;14.60;99.90
51500;DHT22;39101;53.478;6.158;2023-09-19T02:50:15;14.60;99.90
51500;DHT22;39101;53.478;6.158;2023-09-19T02:52:45;14.60;99.90
51500;DHT22;39101;53.478;6.158;2023-09-19T02:55:16;14.70;99.90
51500;DHT22;39101;53.478;6.158;2023-09-19T02:57:52;14.80;99.90
51500;DHT22;39101;53.478;6.158;2023-09-19T03:00:21;15.00;99.90
51500;DHT22;39101;53.478;6.158;2023-09-19T03:02:48;15.00;99.90
51500;DHT22;39101;53.478;6.158;2023-09-19T03:05:13;15.10;99.90
51500;DHT22;39101;53.478;6.158;2023-09-19T03:07:39;15.10;99.90
51500;DHT22;39101;53.478;6.158;2023-09-19T03:10:09;15.10;99.90
51500;DHT22;39101;53.478;6.158;2023-09-19T03:12:35;15.20;99.90
51500;DHT22;39101;53.478;6.158;2023-09-19T03:15:01;15.20;99.90
51500;DHT22;39101;53.478;6.158;2023-09-19T03:17:28;15.20;99.90
51500;DHT22;39101;53.478;6.158;2023-09-19T03:19:54;15.30;99.90
51500;DHT22;39101;53.478;6.158;2023-09-19T03:22:20;15.30;99.90
51500;DHT22;39101;53.478;6.158;2023-09-19T03:24:49;15.30;99.90
51500;DHT22;39101;53.478;6.158;2023-09-19T03:27:15;15.30;99.90
51500;DHT22;39101;53.478;6.158;2023-09-19T03:30:01;15.30;99.90
51500;DHT22;39101;53.478;6.158;2023-09-19T03:32:30;15.30;99.90
51500;DHT22;39101;53.478;6.158;2023-09-19T03:34:56;15.40;99.90
51500;DHT22;39101;53.478;6.158;2023-09-19T03:37:21;15.40;99.90
51500;DHT22;39101;53.478;6.158;2023-09-19T03:39:47;15.40;99.90
51500;DHT22;39101;53.478;6.158;2023-09-19T03:42:14;15.40;99.90
51500;DHT22;39101;53.478;6.158;2023-09-19T03:44:41;15.40;99.90
51500;DHT22;39101;53.478;6.158;2023-09-19T03:47:06;15.30;99.90
51500;DHT22;39101;53.478;6.158;2023-09-19T03:49:33;15.30;99.90
51500;DHT22;39101;53.478;6.158;2023-09-19T03:51:59;15.30;99.90
51500;DHT22;39101;53.478;6.158;2023-09-19T03:54:25;15.30;99.90
51500;DHT22;39101;53.478;6.158;2023-09-19T03:56:50;15.30;99.90
51500;DHT22;39101;53.478;6.158;2023-09-19T03:59:16;15.30;99.90
51500;DHT22;39101;53.478;6.158;2023-09-19T04:01:46;15.20;99.90
51500;DHT22;39101;53.478;6.158;2023-09-19T04:04:12;15.20;99.90
51500;DHT22;39101;53.478;6.158;2023-09-19T04:06:40;15.20;99.90
51500;DHT22;39101;53.478;6.158;2023-09-19T04:09:05;15.20;99.90
51500;DHT22;39101;53.478;6.158;2023-09-19T04:11:33;15.20;99.90
51500;DHT22;39101;53.478;6.158;2023-09-19T04:14:03;15.20;99.90
51500;DHT22;39101;53.478;6.158;2023-09-19T04:16:29;15.20;99.90
51500;DHT22;39101;53.478;6.158;2023-09-19T04:18:56;15.20;99.90
51500;DHT22;39101;53.478;6.158;2023-09-19T04:21:21;15.20;99.90
51500;DHT22;39101;53.478;6.158;2023-09-19T04:23:47;15.20;99.90
51500;DHT22;39101;53.478;6.158;2023-09-19T04:26:13;15.30;99.90
51500;DHT22;39101;53.478;6.158;2023-09-19T04:28:38;15.30;99.90
51500;DHT22;39101;53.478;6.158;2023-09-19T04:31:05;15.30;99.90
51500;DHT22;39101;53.478;6.158;2023-09-19T04:33:30;15.30;99.90
51500;DHT22;39101;53.478;6.158;2023-09-19T04:35:56;15.30;99.90
51500;DHT22;39101;53.478;6.158;2023-09-19T04:38:22;15.30;99.90
51500;DHT22;39101;53.478;6.158;2023-09-19T04:40:48;15.30;99.90
51500;DHT22;39101;53.478;6.158;2023-09-19T04:43:14;15.30;99.90
51500;DHT22;39101;53.478;6.158;2023-09-19T04:45:41;15.30;99.90
51500;DHT22;39101;53.478;6.158;2023-09-19T04:48:06;15.30;99.90
51500;DHT22;39101;53.478;6.158;2023-09-19T04:50:34;15.30;99.90
51500;DHT22;39101;53.478;6.158;2023-09-19T04:53:00;15.30;99.90
51500;DHT22;39101;53.478;6.158;2023-09-19T04:55:27;15.30;99.90
51500;DHT22;39101;53.478;6.158;2023-09-19T04:57:53;15.30;99.90
51500;DHT22;39101;53.478;6.158;2023-09-19T05:00:25;15.30;99.90
51500;DHT22;39101;53.478;6.158;2023-09-19T05:02:56;15.40;99.90
51500;DHT22;39101;53.478;6.158;2023-09-19T05:05:22;15.30;99.90
51500;DHT22;39101;53.478;6.158;2023-09-19T05:07:50;15.30;99.90
51500;DHT22;39101;53.478;6.158;2023-09-19T05:10:16;15.30;99.90
51500;DHT22;39101;53.478;6.158;2023-09-19T05:12:44;15.20;99.90
51500;DHT22;39101;53.478;6.158;2023-09-19T05:15:12;15.20;99.90
51500;DHT22;39101;53.478;6.158;2023-09-19T05:17:51;15.20;99.90
51500;DHT22;39101;53.478;6.158;2023-09-19T05:20:20;15.20;99.90
51500;DHT22;39101;53.478;6.158;2023-09-19T05:23:04;15.20;99.90
51500;DHT22;39101;53.478;6.158;2023-09-19T05:25:37;15.20;99.90
51500;DHT22;39101;53.478;6.158;2023-09-19T05:28:06;15.20;99.90
51500;DHT22;39101;53.478;6.158;2023-09-19T05:30:33;15.10;99.90
51500;DHT22;39101;53.478;6.158;2023-09-19T05:33:02;15.10;99.90
51500;DHT22;39101;53.478;6.158;2023-09-19T05:35:30;15.10;99.90
51500;DHT22;39101;53.478;6.158;2023-09-19T05:37:56;15.10;99.90
51500;DHT22;39101;53.478;6.158;2023-09-19T05:40:24;15.10;99.90
51500;DHT22;39101;53.478;6.158;2023-09-19T05:42:51;15.10;99.90
51500;DHT22;39101;53.478;6.158;2023-09-19T05:45:17;15.10;99.90
51500;DHT22;39101;53.478;6.158;2023-09-19T05:47:48;15.10;99.90
51500;DHT22;39101;53.478;6.158;2023-09-19T05:50:14;15.10;99.90
51500;DHT22;39101;53.478;6.158;2023-09-19T05:52:42;15.10;99.90
51500;DHT22;39101;53.478;6.158;2023-09-19T05:55:08;15.10;99.90
51500;DHT22;39101;53.478;6.158;2023-09-19T05:57:37;15.10;99.90
51500;DHT22;39101;53.478;6.158;2023-09-19T06:00:08;15.10;99.90
51500;DHT22;39101;53.478;6.158;2023-09-19T06:02:37;15.10;99.90
51500;DHT22;39101;53.478;6.158;2023-09-19T06:05:06;15.10;99.90
51500;DHT22;39101;53.478;6.158;2023-09-19T06:07:37;15.10;99.90
51500;DHT22;39101;53.478;6.158;2023-09-19T06:10:03;15.10;99.90
51500;DHT22;39101;53.478;6.158;2023-09-19T06:12:31;15.10;99.90
51500;DHT22;39101;53.478;6.158;2023-09-19T06:14:59;15.10;99.90
51500;DHT22;39101;53.478;6.158;2023-09-19T06:17:25;15.10;99.90
51500;DHT22;39101;53.478;6.158;2023-09-19T06:19:54;15.10;99.90
51500;DHT22;39101;53.478;6.158;2023-09-19T06:22:21;15.10;99.90
51500;DHT22;39101;53.478;6.158;2023-09-19T06:24:48;15.10;99.90
51500;DHT22;39101;53.478;6.158;2023-09-19T06:27:15;15.10;99.90
51500;DHT22;39101;53.478;6.158;2023-09-19T06:29:41;15.10;99.90
51500;DHT22;39101;53.478;6.158;2023-09-19T06:32:09;15.10;99.90
51500;DHT22;39101;53.478;6.158;2023-09-19T06:34:36;15.10;99.90
51500;DHT22;39101;53.478;6.158;2023-09-19T06:37:03;15.20;99.90
51500;DHT22;39101;53.478;6.158;2023-09-19T06:39:28;15.20;99.90
51500;DHT22;39101;53.478;6.158;2023-09-19T06:41:56;15.10;99.90
51500;DHT22;39101;53.478;6.158;2023-09-19T06:44:21;15.20;99.90
51500;DHT22;39101;53.478;6.158;2023-09-19T06:46:51;15.20;99.90
51500;DHT22;39101;53.478;6.158;2023-09-19T06:49:19;15.20;99.90
51500;DHT22;39101;53.478;6.158;2023-09-19T06:51:44;15.20;99.90
51500;DHT22;39101;53.478;6.158;2023-09-19T06:54:10;15.20;99.90
51500;DHT22;39101;53.478;6.158;2023-09-19T06:56:37;15.20;99.90
51500;DHT22;39101;53.478;6.158;2023-09-19T06:59:03;15.30;99.90
51500;DHT22;39101;53.478;6.158;2023-09-19T07:01:31;15.20;99.90
51500;DHT22;39101;53.478;6.158;2023-09-19T07:03:57;15.30;99.90
51500;DHT22;39101;53.478;6.158;2023-09-19T07:06:26;15.40;99.90
51500;DHT22;39101;53.478;6.158;2023-09-19T07:08:51;15.40;99.90
51500;DHT22;39101;53.478;6.158;2023-09-19T07:11:18;15.40;99.90
51500;DHT22;39101;53.478;6.158;2023-09-19T07:13:44;15.40;99.90
51500;DHT22;39101;53.478;6.158;2023-09-19T07:16:10;15.40;99.90
51500;DHT22;39101;53.478;6.158;2023-09-19T07:18:53;15.40;99.90
51500;DHT22;39101;53.478;6.158;2023-09-19T07:21:20;15.50;99.90
51500;DHT22;39101;53.478;6.158;2023-09-19T07:23:47;15.50;99.90
51500;DHT22;39101;53.478;6.158;2023-09-19T07:26:13;15.50;99.90
51500;DHT22;39101;53.478;6.158;2023-09-19T07:28:39;15.50;99.90
51500;DHT22;39101;53.478;6.158;2023-09-19T07:31:04;15.60;99.90
51500;DHT22;39101;53.478;6.158;2023-09-19T07:33:30;15.70;99.90
51500;DHT22;39101;53.478;6.158;2023-09-19T07:35:56;15.70;99.90
51500;DHT22;39101;53.478;6.158;2023-09-19T07:38:22;15.70;99.90
51500;DHT22;39101;53.478;6.158;2023-09-19T07:40:48;15.80;99.90
51500;DHT22;39101;53.478;6.158;2023-09-19T07:43:15;15.80;99.90
51500;DHT22;39101;53.478;6.158;2023-09-19T07:45:41;15.80;99.90
51500;DHT22;39101;53.478;6.158;2023-09-19T07:48:08;15.80;99.90
51500;DHT22;39101;53.478;6.158;2023-09-19T07:50:40;15.80;99.90
51500;DHT22;39101;53.478;6.158;2023-09-19T07:53:09;15.90;99.90
51500;DHT22;39101;53.478;6.158;2023-09-19T07:55:35;15.80;99.90
51500;DHT22;39101;53.478;6.158;2023-09-19T07:58:01;15.90;99.90
51500;DHT22;39101;53.478;6.158;2023-09-19T08:00:29;15.90;99.90
51500;DHT22;39101;53.478;6.158;2023-09-19T08:02:55;15.90;99.90
51500;DHT22;39101;53.478;6.158;2023-09-19T08:05:21;15.90;99.90
51500;DHT22;39101;53.478;6.158;2023-09-19T08:07:47;15.90;99.90
51500;DHT22;39101;53.478;6.158;2023-09-19T08:10:16;16.00;99.90
51500;DHT22;39101;53.478;6.158;2023-09-19T08:12:46;16.10;99.90
51500;DHT22;39101;53.478;6.158;2023-09-19T08:15:19;16.10;99.90
51500;DHT22;39101;53.478;6.158;2023-09-19T08:17:46;16.10;99.90
51500;DHT22;39101;53.478;6.158;2023-09-19T08:20:12;16.10;99.90
51500;DHT22;39101;53.478;6.158;2023-09-19T08:22:46;16.20;99.90
51500;DHT22;39101;53.478;6.158;2023-09-19T08:25:13;16.20;99.90
51500;DHT22;39101;53.478;6.158;2023-09-19T08:27:39;16.30;99.90
51500;DHT22;39101;53.478;6.158;2023-09-19T08:30:05;16.30;99.90
51500;DHT22;39101;53.478;6.158;2023-09-19T08:32:32;16.30;99.90
51500;DHT22;39101;53.478;6.158;2023-09-19T08:34:58;16.30;99.90
51500;DHT22;39101;53.478;6.158;2023-09-19T08:37:23;16.40;99.90
51500;DHT22;39101;53.478;6.158;2023-09-19T08:39:49;16.40;99.90
51500;DHT22;39101;53.478;6.158;2023-09-19T08:42:16;16.40;99.90
51500;DHT22;39101;53.478;6.158;2023-09-19T08:44:45;16.40;99.90
51500;DHT22;39101;53.478;6.158;2023-09-19T08:47:11;16.40;99.90
51500;DHT22;39101;53.478;6.158;2023-09-19T08:49:53;16.50;99.90
51500;DHT22;39101;53.478;6.158;2023-09-19T08:52:27;16.60;99.90
51500;DHT22;39101;53.478;6.158;2023-09-19T08:54:59;16.60;99.90
51500;DHT22;39101;53.478;6.158;2023-09-19T08:57:36;16.60;99.90
51500;DHT22;39101;53.478;6.158;2023-09-19T09:00:08;16.60;99.90
51500;DHT22;39101;53.478;6.158;2023-09-19T09:02:41;16.50;99.90
51500;DHT22;39101;53.478;6.158;2023-09-19T09:05:11;16.50;99.90
51500;DHT22;39101;53.478;6.158;2023-09-19T09:07:38;16.60;99.90
51500;DHT22;39101;53.478;6.158;2023-09-19T09:10:06;16.60;99.90
51500;DHT22;39101;53.478;6.158;2023-09-19T09:12:32;16.60;99.90
51500;DHT22;39101;53.478;6.158;2023-09-19T09:15:00;16.60;99.90
51500;DHT22;39101;53.478;6.158;2023-09-19T09:17:26;16.80;99.90
51500;DHT22;39101;53.478;6.158;2023-09-19T09:19:55;16.80;99.90
51500;DHT22;39101;53.478;6.158;2023-09-19T09:22:21;16.90;99.90
51500;DHT22;39101;53.478;6.158;2023-09-19T09:24:57;16.90;99.90
51500;DHT22;39101;53.478;6.158;2023-09-19T09:27:30;17.00;99.90
51500;DHT22;39101;53.478;6.158;2023-09-19T09:30:00;17.00;99.90
51500;DHT22;39101;53.478;6.158;2023-09-19T09:32:28;17.10;99.90
51500;DHT22;39101;53.478;6.158;2023-09-19T09:35:08;17.10;99.90
51500;DHT22;39101;53.478;6.158;2023-09-19T09:37:43;17.20;99.90
51500;DHT22;39101;53.478;6.158;2023-09-19T09:40:09;17.20;99.90
51500;DHT22;39101;53.478;6.158;2023-09-19T09:42:57;17.20;99.90
51500;DHT22;39101;53.478;6.158;2023-09-19T09:45:25;17.30;99.90
51500;DHT22;39101;53.478;6.158;2023-09-19T09:48:03;17.30;99.90
51500;DHT22;39101;53.478;6.158;2023-09-19T09:50:50;17.30;99.90
51500;DHT22;39101;53.478;6.158;2023-09-19T09:53:29;17.30;99.90
51500;DHT22;39101;53.478;6.158;2023-09-19T09:56:01;17.40;99.90
51500;DHT22;39101;53.478;6.158;2023-09-19T09:58:49;17.40;99.90
51500;DHT22;39101;53.478;6.158;2023-09-19T10:01:17;17.50;99.90
51500;DHT22;39101;53.478;6.158;2023-09-19T10:03:43;17.50;99.90
51500;DHT22;39101;53.478;6.158;2023-09-19T10:06:17;17.50;99.90
51500;DHT22;39101;53.478;6.158;2023-09-19T10:09:15;17.60;99.90
51500;DHT22;39101;53.478;6.158;2023-09-19T10:12:06;17.60;99.90
51500;DHT22;39101;53.478;6.158;2023-09-19T10:14:38;17.60;99.90
51500;DHT22;39101;53.478;6.158;2023-09-19T10:17:17;17.60;99.90
51500;DHT22;39101;53.478;6.158;2023-09-19T10:19:55;17.70;99.90
51500;DHT22;39101;53.478;6.158;2023-09-19T10:22:29;17.70;99.90
51500;DHT22;39101;53.478;6.158;2023-09-19T10:25:00;17.80;99.90
51500;DHT22;39101;53.478;6.158;2023-09-19T10:27:28;17.80;99.90
51500;DHT22;39101;53.478;6.158;2023-09-19T10:29:56;17.90;99.90
51500;DHT22;39101;53.478;6.158;2023-09-19T10:32:26;17.90;99.90
51500;DHT22;39101;53.478;6.158;2023-09-19T10:34:53;17.90;99.90
51500;DHT22;39101;53.478;6.158;2023-09-19T10:37:23;17.90;99.90
51500;DHT22;39101;53.478;6.158;2023-09-19T10:39:52;18.00;99.90
51500;DHT22;39101;53.478;6.158;2023-09-19T10:42:25;18.00;99.90
51500;DHT22;39101;53.478;6.158;2023-09-19T10:44:55;18.10;99.90
51500;DHT22;39101;53.478;6.158;2023-09-19T10:47:27;18.00;99.90
51500;DHT22;39101;53.478;6.158;2023-09-19T10:49:52;18.00;99.90
51500;DHT22;39101;53.478;6.158;2023-09-19T10:52:24;18.00;99.90
51500;DHT22;39101;53.478;6.158;2023-09-19T10:54:54;18.00;99.90
51500;DHT22;39101;53.478;6.158;2023-09-19T10:57:24;18.00;99.90
51500;DHT22;39101;53.478;6.158;2023-09-19T11:00:06;18.00;99.90
51500;DHT22;39101;53.478;6.158;2023-09-19T11:06:05;17.90;99.90
51500;DHT22;39101;53.478;6.158;2023-09-19T11:09:03;17.80;99.90
51500;DHT22;39101;53.478;6.158;2023-09-19T11:11:42;17.80;99.90
51500;DHT22;39101;53.478;6.158;2023-09-19T11:30:39;17.30;99.90
51500;DHT22;39101;53.478;6.158;2023-09-19T11:33:28;17.40;99.90
51500;DHT22;39101;53.478;6.158;2023-09-19T11:36:15;17.40;99.90
51500;DHT22;39101;53.478;6.158;2023-09-19T11:43:53;17.50;99.90
51500;DHT22;39101;53.478;6.158;2023-09-19T11:46:24;17.50;99.90
51500;DHT22;39101;53.478;6.158;2023-09-19T11:48:54;17.40;99.90
51500;DHT22;39101;53.478;6.158;2023-09-19T11:51:26;17.40;99.90
51500;DHT22;39101;53.478;6.158;2023-09-19T11:54:12;17.30;99.90
51500;DHT22;39101;53.478;6.158;2023-09-19T11:56:45;17.30;99.90
51500;DHT22;39101;53.478;6.158;2023-09-19T11:59:23;17.30;99.90
51500;DHT22;39101;53.478;6.158;2023-09-19T12:01:56;17.30;99.90
51500;DHT22;39101;53.478;6.158;2023-09-19T12:04:40;17.30;99.90
51500;DHT22;39101;53.478;6.158;2023-09-19T12:07:26;17.20;99.90
51500;DHT22;39101;53.478;6.158;2023-09-19T12:10:05;17.00;99.90
51500;DHT22;39101;53.478;6.158;2023-09-19T12:12:34;16.90;99.90
51500;DHT22;39101;53.478;6.158;2023-09-19T12:14:59;16.80;99.90
51500;DHT22;39101;53.478;6.158;2023-09-19T12:17:37;16.80;99.90
51500;DHT22;39101;53.478;6.158;2023-09-19T12:20:05;16.70;99.90
51500;DHT22;39101;53.478;6.158;2023-09-19T12:22:46;16.70;99.90
51500;DHT22;39101;53.478;6.158;2023-09-19T12:25:13;16.60;99.90
51500;DHT22;39101;53.478;6.158;2023-09-19T12:27:47;16.60;99.90
51500;DHT22;39101;53.478;6.158;2023-09-19T12:30:15;16.30;99.90
51500;DHT22;39101;53.478;6.158;2023-09-19T12:32:45;16.60;99.90
51500;DHT22;39101;53.478;6.158;2023-09-19T12:35:27;16.70;99.90
51500;DHT22;39101;53.478;6.158;2023-09-19T12:37:56;16.80;99.90
51500;DHT22;39101;53.478;6.158;2023-09-19T12:40:22;16.80;99.90
51500;DHT22;39101;53.478;6.158;2023-09-19T12:42:54;16.80;99.90
51500;DHT22;39101;53.478;6.158;2023-09-19T12:45:33;16.80;99.90
51500;DHT22;39101;53.478;6.158;2023-09-19T12:48:25;16.90;99.90
51500;DHT22;39101;53.478;6.158;2023-09-19T12:51:12;17.00;99.90
51500;DHT22;39101;53.478;6.158;2023-09-19T12:53:45;17.00;99.90
51500;DHT22;39101;53.478;6.158;2023-09-19T12:56:18;17.10;99.90
51500;DHT22;39101;53.478;6.158;2023-09-19T13:01:16;17.20;99.90
51500;DHT22;39101;53.478;6.158;2023-09-19T13:03:42;17.20;99.90
51500;DHT22;39101;53.478;6.158;2023-09-19T13:06:09;17.30;99.90
51500;DHT22;39101;53.478;6.158;2023-09-19T13:08:37;17.30;99.90
51500;DHT22;39101;53.478;6.158;2023-09-19T13:11:18;17.30;99.90
51500;DHT22;39101;53.478;6.158;2023-09-19T13:14:13;17.20;99.90
51500;DHT22;39101;53.478;6.158;2023-09-19T13:17:07;17.20;99.90
51500;DHT22;39101;53.478;6.158;2023-09-19T13:19:44;17.10;99.90
51500;DHT22;39101;53.478;6.158;2023-09-19T13:22:45;17.10;99.90
51500;DHT22;39101;53.478;6.158;2023-09-19T13:25:21;17.00;99.90
51500;DHT22;39101;53.478;6.158;2023-09-19T13:27:52;17.00;99.90
51500;DHT22;39101;53.478;6.158;2023-09-19T13:30:20;17.10;99.90
51500;DHT22;39101;53.478;6.158;2023-09-19T13:32:48;17.10;99.90
51500;DHT22;39101;53.478;6.158;2023-09-19T13:35:14;17.10;99.90
51500;DHT22;39101;53.478;6.158;2023-09-19T13:37:42;17.10;99.90
51500;DHT22;39101;53.478;6.158;2023-09-19T13:40:09;17.20;99.90
51500;DHT22;39101;53.478;6.158;2023-09-19T13:42:36;17.30;99.90
51500;DHT22;39101;53.478;6.158;2023-09-19T13:45:04;17.30;99.90
51500;DHT22;39101;53.478;6.158;2023-09-19T13:47:36;17.30;99.90
51500;DHT22;39101;53.478;6.158;2023-09-19T13:50:04;17.40;99.90
51500;DHT22;39101;53.478;6.158;2023-09-19T13:52:32;17.40;99.90
51500;DHT22;39101;53.478;6.158;2023-09-19T13:54:59;17.50;99.90
51500;DHT22;39101;53.478;6.158;2023-09-19T13:57:25;17.40;99.90
51500;DHT22;39101;53.478;6.158;2023-09-19T13:59:52;17.40;99.90
51500;DHT22;39101;53.478;6.158;2023-09-19T14:02:20;17.40;99.90
51500;DHT22;39101;53.478;6.158;2023-09-19T14:04:50;17.50;99.90
51500;DHT22;39101;53.478;6.158;2023-09-19T14:07:16;17.50;99.90
51500;DHT22;39101;53.478;6.158;2023-09-19T14:09:43;17.60;99.90
51500;DHT22;39101;53.478;6.158;2023-09-19T14:12:09;17.60;99.90
51500;DHT22;39101;53.478;6.158;2023-09-19T14:14:35;17.60;99.90
51500;DHT22;39101;53.478;6.158;2023-09-19T14:17:00;17.60;99.90
51500;DHT22;39101;53.478;6.158;2023-09-19T14:19:29;17.50;99.90
51500;DHT22;39101;53.478;6.158;2023-09-19T14:21:55;17.50;99.90
51500;DHT22;39101;53.478;6.158;2023-09-19T14:24:23;17.60;99.90
51500;DHT22;39101;53.478;6.158;2023-09-19T14:26:49;17.50;99.90
51500;DHT22;39101;53.478;6.158;2023-09-19T14:29:15;17.40;99.90
51500;DHT22;39101;53.478;6.158;2023-09-19T14:31:42;17.30;99.90
51500;DHT22;39101;53.478;6.158;2023-09-19T14:34:11;17.30;99.90
51500;DHT22;39101;53.478;6.158;2023-09-19T14:36:37;17.10;99.90
51500;DHT22;39101;53.478;6.158;2023-09-19T14:39:04;17.10;99.90
51500;DHT22;39101;53.478;6.158;2023-09-19T14:41:30;17.10;99.90
51500;DHT22;39101;53.478;6.158;2023-09-19T14:44:05;17.00;99.90
51500;DHT22;39101;53.478;6.158;2023-09-19T14:46:31;17.00;99.90
51500;DHT22;39101;53.478;6.158;2023-09-19T14:48:57;17.00;99.90
51500;DHT22;39101;53.478;6.158;2023-09-19T14:51:29;16.90;99.90
51500;DHT22;39101;53.478;6.158;2023-09-19T14:53:56;16.90;99.90
51500;DHT22;39101;53.478;6.158;2023-09-19T14:56:24;16.90;99.90
51500;DHT22;39101;53.478;6.158;2023-09-19T14:58:51;16.90;99.90
51500;DHT22;39101;53.478;6.158;2023-09-19T15:01:17;17.00;99.90
51500;DHT22;39101;53.478;6.158;2023-09-19T15:03:45;17.00;99.90
51500;DHT22;39101;53.478;6.158;2023-09-19T15:06:12;17.00;99.90
51500;DHT22;39101;53.478;6.158;2023-09-19T15:08:45;17.10;99.90
51500;DHT22;39101;53.478;6.158;2023-09-19T15:11:14;17.10;99.90
51500;DHT22;39101;53.478;6.158;2023-09-19T15:13:43;17.10;99.90
51500;DHT22;39101;53.478;6.158;2023-09-19T15:16:11;17.20;99.90
51500;DHT22;39101;53.478;6.158;2023-09-19T15:18:41;17.20;99.90
51500;DHT22;39101;53.478;6.158;2023-09-19T15:21:09;17.20;99.90
51500;DHT22;39101;53.478;6.158;2023-09-19T15:23:37;17.30;99.90
51500;DHT22;39101;53.478;6.158;2023-09-19T15:26:07;17.30;99.90
51500;DHT22;39101;53.478;6.158;2023-09-19T15:28:45;17.40;99.90
51500;DHT22;39101;53.478;6.158;2023-09-19T15:31:12;17.40;99.90
51500;DHT22;39101;53.478;6.158;2023-09-19T15:33:39;17.40;99.90
51500;DHT22;39101;53.478;6.158;2023-09-19T15:36:05;17.40;99.90
51500;DHT22;39101;53.478;6.158;2023-09-19T15:41:45;17.50;99.90
51500;DHT22;39101;53.478;6.158;2023-09-19T15:44:17;17.50;99.90
51500;DHT22;39101;53.478;6.158;2023-09-19T15:46:46;17.50;99.90
51500;DHT22;39101;53.478;6.158;2023-09-19T15:49:13;17.50;99.90
51500;DHT22;39101;53.478;6.158;2023-09-19T15:51:39;17.40;99.90
51500;DHT22;39101;53.478;6.158;2023-09-19T15:54:14;17.50;99.90
51500;DHT22;39101;53.478;6.158;2023-09-19T15:56:41;17.40;99.90
51500;DHT22;39101;53.478;6.158;2023-09-19T15:59:08;17.40;99.90
51500;DHT22;39101;53.478;6.158;2023-09-19T16:01:35;17.40;99.90
51500;DHT22;39101;53.478;6.158;2023-09-19T16:04:02;17.30;99.90
51500;DHT22;39101;53.478;6.158;2023-09-19T16:06:29;17.30;99.90
51500;DHT22;39101;53.478;6.158;2023-09-19T16:08:57;17.40;99.90
51500;DHT22;39101;53.478;6.158;2023-09-19T16:11:25;17.40;99.90
51500;DHT22;39101;53.478;6.158;2023-09-19T16:13:53;17.40;99.90
51500;DHT22;39101;53.478;6.158;2023-09-19T16:16:20;17.40;99.90
51500;DHT22;39101;53.478;6.158;2023-09-19T16:18:57;17.30;99.90
51500;DHT22;39101;53.478;6.158;2023-09-19T16:21:28;17.30;99.90
51500;DHT22;39101;53.478;6.158;2023-09-19T16:23:56;17.30;99.90
51500;DHT22;39101;53.478;6.158;2023-09-19T16:26:22;17.20;99.90
51500;DHT22;39101;53.478;6.158;2023-09-19T16:28:53;17.20;99.90
51500;DHT22;39101;53.478;6.158;2023-09-19T16:31:20;17.20;99.90
51500;DHT22;39101;53.478;6.158;2023-09-19T16:33:47;17.20;99.90